createdAt,value
2017-05-04T00:00:33.459Z,99.99
2017-05-04T00:01:33.184Z,99.99
2017-05-04T00:02:33.165Z,99.99
2017-05-04T00:03:33.143Z,99.99
2017-05-04T00:04:33.117Z,99.99
2017-05-04T00:05:33.093Z,99.99
2017-05-04T00:06:33.074Z,99.99
2017-05-04T00:07:33.049Z,99.99
2017-05-04T00:08:33.025Z,99.99
2017-05-04T00:09:33.012Z,99.99
2017-05-04T00:10:32.981Z,99.99
2017-05-04T00:11:32.952Z,99.99
2017-05-04T00:12:32.980Z,99.99
2017-05-04T00:13:32.911Z,99.99
2017-05-04T00:14:32.885Z,99.99
2017-05-04T00:15:32.618Z,99.99
2017-05-04T00:16:32.847Z,99.99
2017-05-04T00:17:32.822Z,99.99
2017-05-04T00:18:32.802Z,99.99
2017-05-04T00:19:32.778Z,99.99
2017-05-04T00:20:32.751Z,99.99
2017-05-04T00:21:32.725Z,99.99
2017-05-04T00:22:32.706Z,99.99
2017-05-04T00:23:32.680Z,99.99
2017-05-04T00:24:32.656Z,99.99
2017-05-04T00:25:32.634Z,99.99
2017-05-04T00:26:32.612Z,99.8
2017-05-04T00:27:32.592Z,99.99
2017-05-04T00:28:32.573Z,99.89
2017-05-04T00:29:32.543Z,99.89
2017-05-04T00:30:32.524Z,99.89
2017-05-04T00:31:32.497Z,99.7
2017-05-04T00:32:32.484Z,99.99
2017-05-04T00:33:32.451Z,99.99
2017-05-04T00:34:32.425Z,99.8
2017-05-04T00:35:32.403Z,99.6
2017-05-04T00:36:32.381Z,99.13
2017-05-04T00:37:32.358Z,99.13
2017-05-04T00:38:32.339Z,99.51
2017-05-04T00:39:32.314Z,98.94
2017-05-04T00:40:32.290Z,99.41
2017-05-04T00:41:32.275Z,98.85
2017-05-04T00:42:32.252Z,98.85
2017-05-04T00:43:32.220Z,99.32
2017-05-04T00:44:32.201Z,99.13
2017-05-04T00:45:32.181Z,98.94
2017-05-04T00:46:32.200Z,99.6
2017-05-04T00:47:32.134Z,99.89
2017-05-04T00:48:32.137Z,99.22
2017-05-04T00:49:32.093Z,99.51
2017-05-04T00:50:32.064Z,99.99
2017-05-04T00:51:32.090Z,98.89
2017-05-04T00:52:32.017Z,99.6
2017-05-04T00:53:32.001Z,99.37
2017-05-04T00:54:31.971Z,99.22
2017-05-04T00:55:31.948Z,99.51
2017-05-04T00:56:31.927Z,99.37
2017-05-04T00:57:31.915Z,99.41
2017-05-04T00:58:31.880Z,99.51
2017-05-04T00:59:31.869Z,99.84
2017-05-04T01:00:31.836Z,99.94
2017-05-04T01:01:31.815Z,99.46
2017-05-04T01:02:31.487Z,99.55
2017-05-04T01:03:31.766Z,99.04
2017-05-04T01:04:31.744Z,99.04
2017-05-04T01:05:31.721Z,99.08
2017-05-04T01:06:31.695Z,99.04
2017-05-04T01:07:31.679Z,98.6
2017-05-04T01:08:31.653Z,97.75
2017-05-04T01:09:31.635Z,97.56
2017-05-04T01:10:31.613Z,97.65
2017-05-04T01:11:31.585Z,97.46
2017-05-04T01:12:31.561Z,97.36
2017-05-04T01:13:31.538Z,96.22
2017-05-04T01:14:31.517Z,97.84
2017-05-04T01:15:31.496Z,97.65
2017-05-04T01:16:31.468Z,96.6
2017-05-04T01:17:31.449Z,96.7
2017-05-04T01:18:31.420Z,95.27
2017-05-04T01:19:31.103Z,95.36
2017-05-04T01:20:31.395Z,95.36
2017-05-04T01:21:31.358Z,95.84
2017-05-04T01:22:31.332Z,95.65
2017-05-04T01:23:31.317Z,95.56
2017-05-04T01:24:30.984Z,95.75
2017-05-04T01:25:31.317Z,94.89
2017-05-04T01:26:31.238Z,95.17
2017-05-04T01:27:31.223Z,95.27
2017-05-04T01:28:31.195Z,94.89
2017-05-04T01:29:31.170Z,94.89
2017-05-04T01:30:31.146Z,94.32
2017-05-04T01:31:31.122Z,94.41
2017-05-04T01:32:31.102Z,95.17
2017-05-04T01:33:31.085Z,95.17
2017-05-04T01:34:31.057Z,95.27
2017-05-04T01:35:31.036Z,95.08
2017-05-04T01:36:31.008Z,94.89
2017-05-04T01:37:31.037Z,94.51
2017-05-04T01:38:30.967Z,94.79
2017-05-04T01:39:30.938Z,94.32
2017-05-04T01:40:30.919Z,93.08
2017-05-04T01:41:30.900Z,93.08
2017-05-04T01:42:30.870Z,93.65
2017-05-04T01:43:30.847Z,92.98
2017-05-04T01:44:30.823Z,93.84
2017-05-04T01:45:30.806Z,93.55
2017-05-04T01:46:30.476Z,93.55
2017-05-04T01:47:30.807Z,93.65
2017-05-04T01:48:30.739Z,94.32
2017-05-04T01:49:30.766Z,93.84
2017-05-04T01:50:30.686Z,93.65
2017-05-04T01:51:30.665Z,93.37
2017-05-04T01:52:30.644Z,93.84
2017-05-04T01:53:30.619Z,93.55
2017-05-04T01:54:30.294Z,94.22
2017-05-04T01:55:30.567Z,94.41
2017-05-04T01:56:30.552Z,94.74
2017-05-04T01:57:30.525Z,94.93
2017-05-04T01:58:30.505Z,94.13
2017-05-04T01:59:30.482Z,94.13
2017-05-04T02:00:30.455Z,94.84
2017-05-04T02:01:30.434Z,93.89
2017-05-04T02:02:30.712Z,93.22
2017-05-04T02:03:30.393Z,93.32
2017-05-04T02:04:30.360Z,93.41
2017-05-04T02:05:30.339Z,92.65
2017-05-04T02:06:30.321Z,92.84
2017-05-04T02:07:30.296Z,93.32
2017-05-04T02:08:30.278Z,93.41
2017-05-04T02:09:30.251Z,93.6
2017-05-04T02:10:30.222Z,93.32
2017-05-04T02:11:30.201Z,93.41
2017-05-04T02:12:30.184Z,93.41
2017-05-04T02:13:30.153Z,93.51
2017-05-04T02:14:30.138Z,92.65
2017-05-04T02:15:30.113Z,92.84
2017-05-04T02:16:30.093Z,92.94
2017-05-04T02:17:30.063Z,93.03
2017-05-04T02:18:30.039Z,92.55
2017-05-04T02:19:30.017Z,92.36
2017-05-04T02:20:29.693Z,92.65
2017-05-04T02:21:29.975Z,92.55
2017-05-04T02:22:29.947Z,92.27
2017-05-04T02:23:29.924Z,91.41
2017-05-04T02:24:29.915Z,91.89
2017-05-04T02:25:29.881Z,91.79
2017-05-04T02:26:29.855Z,92.27
2017-05-04T02:27:29.849Z,93.13
2017-05-04T02:28:29.816Z,93.03
2017-05-04T02:29:29.787Z,92.84
2017-05-04T02:30:29.764Z,92.65
2017-05-04T02:31:29.745Z,92.27
2017-05-04T02:32:29.714Z,92.84
2017-05-04T02:33:29.698Z,92.46
2017-05-04T02:34:29.666Z,92.46
2017-05-04T02:35:29.651Z,90.75
2017-05-04T02:36:29.627Z,90.84
2017-05-04T02:37:29.600Z,91.41
2017-05-04T02:38:29.575Z,91.51
2017-05-04T02:39:29.555Z,90.75
2017-05-04T02:40:29.528Z,90.99
2017-05-04T02:41:29.205Z,91.51
2017-05-04T02:42:29.489Z,92.13
2017-05-04T02:43:29.471Z,91.6
2017-05-04T02:44:29.441Z,91.75
2017-05-04T02:45:29.444Z,91.99
2017-05-04T02:46:29.397Z,92.32
2017-05-04T02:47:29.369Z,91.46
2017-05-04T02:48:29.343Z,91.56
2017-05-04T02:49:29.326Z,91.46
2017-05-04T02:50:29.294Z,91.27
2017-05-04T02:51:29.277Z,91.17
2017-05-04T02:52:29.251Z,91.46
2017-05-04T02:53:29.230Z,91.46
2017-05-04T02:54:29.203Z,91.46
2017-05-04T02:55:29.182Z,91.75
2017-05-04T02:56:29.207Z,91.94
2017-05-04T02:57:29.136Z,91.46
2017-05-04T02:58:29.125Z,91.65
2017-05-04T02:59:29.089Z,91.75
2017-05-04T03:00:29.076Z,92.03
2017-05-04T03:01:29.043Z,92.03
2017-05-04T03:02:29.019Z,92.41
2017-05-04T03:03:28.994Z,92.32
2017-05-04T03:04:28.973Z,91.65
2017-05-04T03:05:28.944Z,91.84
2017-05-04T03:06:28.951Z,91.56
2017-05-04T03:07:28.948Z,92.03
2017-05-04T03:08:28.574Z,91.84
2017-05-04T03:09:28.854Z,92.03
2017-05-04T03:10:28.840Z,92.03
2017-05-04T03:11:28.818Z,92.41
2017-05-04T03:12:28.787Z,92.41
2017-05-04T03:13:28.764Z,92.89
2017-05-04T03:14:28.739Z,93.18
2017-05-04T03:15:28.717Z,92.13
2017-05-04T03:16:28.690Z,92.51
2017-05-04T03:17:28.667Z,92.03
2017-05-04T03:18:28.641Z,92.6
2017-05-04T03:19:28.618Z,92.75
2017-05-04T03:20:28.605Z,92.13
2017-05-04T03:21:28.629Z,92.03
2017-05-04T03:22:28.549Z,92.7
2017-05-04T03:23:28.531Z,92.6
2017-05-04T03:24:28.503Z,91.75
2017-05-04T03:25:28.487Z,91.84
2017-05-04T03:26:28.450Z,91.56
2017-05-04T03:27:28.127Z,91.56
2017-05-04T03:28:28.440Z,90.84
2017-05-04T03:29:28.386Z,90.47
2017-05-04T03:30:28.365Z,90.18
2017-05-04T03:31:28.340Z,90.94
2017-05-04T03:32:28.313Z,91.61
2017-05-04T03:33:28.290Z,91.42
2017-05-04T03:34:28.266Z,91.51
2017-05-04T03:35:28.245Z,91.42
2017-05-04T03:36:28.222Z,91.51
2017-05-04T03:37:28.194Z,91.42
2017-05-04T03:38:27.870Z,91.8
2017-05-04T03:39:28.157Z,91.7
2017-05-04T03:40:28.125Z,91.61
2017-05-04T03:41:28.100Z,91.8
2017-05-04T03:42:28.084Z,91.42
2017-05-04T03:43:28.060Z,91.8
2017-05-04T03:44:28.032Z,91.7
2017-05-04T03:45:28.027Z,91.89
2017-05-04T03:46:27.986Z,91.51
2017-05-04T03:47:27.958Z,91.61
2017-05-04T03:48:27.943Z,92.46
2017-05-04T03:49:27.913Z,91.99
2017-05-04T03:50:27.890Z,92.18
2017-05-04T03:51:27.864Z,91.7
2017-05-04T03:52:27.843Z,91.99
2017-05-04T03:53:27.829Z,91.8
2017-05-04T03:54:27.794Z,91.8
2017-05-04T03:55:27.775Z,91.7
2017-05-04T03:56:27.748Z,91.99
2017-05-04T03:57:27.725Z,91.51
2017-05-04T03:58:27.702Z,91.7
2017-05-04T03:59:27.681Z,92.27
2017-05-04T04:00:27.661Z,91.89
2017-05-04T04:01:27.639Z,92.36
2017-05-04T04:02:27.606Z,92.46
2017-05-04T04:03:27.586Z,91.7
2017-05-04T04:04:27.564Z,91.51
2017-05-04T04:05:27.537Z,91.22
2017-05-04T04:06:27.516Z,91.61
2017-05-04T04:07:27.540Z,91.8
2017-05-04T04:08:27.471Z,91.8
2017-05-04T04:09:27.444Z,91.61
2017-05-04T04:10:27.474Z,91.99
2017-05-04T04:11:27.396Z,91.51
2017-05-04T04:12:27.375Z,91.42
2017-05-04T04:13:27.356Z,91.42
2017-05-04T04:14:27.328Z,91.61
2017-05-04T04:15:27.306Z,91.8
2017-05-04T04:16:27.278Z,91.99
2017-05-04T04:17:27.255Z,91.22
2017-05-04T04:18:27.238Z,91.8
2017-05-04T04:19:27.217Z,91.7
2017-05-04T04:20:27.188Z,91.7
2017-05-04T04:21:27.198Z,91.42
2017-05-04T04:22:27.145Z,91.51
2017-05-04T04:23:27.424Z,91.8
2017-05-04T04:24:27.094Z,91.89
2017-05-04T04:25:27.066Z,91.7
2017-05-04T04:26:27.044Z,91.7
2017-05-04T04:27:27.023Z,91.8
2017-05-04T04:28:27.003Z,91.8
2017-05-04T04:29:26.977Z,91.7
2017-05-04T04:30:26.952Z,91.51
2017-05-04T04:31:26.929Z,91.42
2017-05-04T04:32:41.510Z,91.42
2017-05-04T04:33:26.881Z,91.51
2017-05-04T04:34:26.855Z,91.61
2017-05-04T04:35:26.835Z,91.03
2017-05-04T04:36:26.812Z,91.51
2017-05-04T04:37:26.786Z,91.51
2017-05-04T04:38:26.767Z,91.03
2017-05-04T04:39:26.744Z,91.61
2017-05-04T04:40:26.716Z,91.51
2017-05-04T04:41:26.387Z,90.84
2017-05-04T04:42:26.672Z,90.66
2017-05-04T04:43:26.646Z,91.42
2017-05-04T04:44:26.625Z,91.42
2017-05-04T04:45:26.604Z,91.42
2017-05-04T04:46:26.585Z,91.42
2017-05-04T04:47:26.554Z,91.51
2017-05-04T04:48:26.530Z,90.37
2017-05-04T04:49:26.503Z,90.37
2017-05-04T04:50:26.489Z,90.18
2017-05-04T04:51:26.459Z,90.37
2017-05-04T04:52:26.442Z,90.66
2017-05-04T04:53:26.112Z,90.47
2017-05-04T04:54:26.386Z,90.37
2017-05-04T04:55:26.364Z,90.47
2017-05-04T04:56:26.344Z,90.18
2017-05-04T04:57:26.319Z,90.18
2017-05-04T04:58:26.301Z,90.37
2017-05-04T04:59:26.278Z,90.84
2017-05-04T05:00:26.248Z,90.18
2017-05-04T05:01:26.269Z,90.66
2017-05-04T05:02:26.203Z,90.56
2017-05-04T05:03:26.181Z,90.47
2017-05-04T05:04:26.155Z,90.56
2017-05-04T05:05:26.133Z,90.47
2017-05-04T05:06:26.108Z,90.47
2017-05-04T05:07:26.081Z,90.66
2017-05-04T05:08:26.058Z,90.47
2017-05-04T05:09:26.034Z,90.56
2017-05-04T05:10:25.712Z,90.37
2017-05-04T05:11:25.994Z,90.37
2017-05-04T05:12:25.967Z,90.66
2017-05-04T05:13:25.939Z,89.99
2017-05-04T05:14:25.921Z,90.66
2017-05-04T05:15:25.894Z,90.56
2017-05-04T05:16:25.922Z,90.18
2017-05-04T05:17:25.847Z,90.66
2017-05-04T05:18:25.826Z,90.08
2017-05-04T05:19:25.823Z,89.42
2017-05-04T05:20:25.784Z,89.42
2017-05-04T05:21:25.757Z,90.08
2017-05-04T05:22:25.738Z,89.61
2017-05-04T05:23:25.708Z,89.08
2017-05-04T05:24:25.395Z,89.04
2017-05-04T05:25:25.711Z,89.61
2017-05-04T05:26:25.640Z,89.32
2017-05-04T05:27:25.615Z,89.42
2017-05-04T05:28:25.595Z,89.14
2017-05-04T05:29:25.576Z,89.37
2017-05-04T05:30:25.545Z,89.27
2017-05-04T05:31:25.548Z,87.94
2017-05-04T05:32:25.502Z,88.13
2017-05-04T05:33:25.488Z,88.23
2017-05-04T05:34:25.459Z,88.42
2017-05-04T05:35:25.432Z,88.42
2017-05-04T05:36:25.407Z,87.75
2017-05-04T05:37:25.087Z,87.27
2017-05-04T05:38:25.374Z,86.42
2017-05-04T05:39:25.373Z,87.08
2017-05-04T05:40:25.376Z,87.46
2017-05-04T05:41:24.995Z,86.7
2017-05-04T05:42:25.272Z,86.04
2017-05-04T05:43:25.246Z,86.51
2017-05-04T05:44:25.220Z,86.8
2017-05-04T05:45:25.203Z,86.7
2017-05-04T05:46:25.181Z,86.51
2017-05-04T05:47:25.163Z,85.66
2017-05-04T05:48:25.141Z,85.32
2017-05-04T05:49:25.109Z,85.89
2017-05-04T05:50:25.137Z,86.27
2017-05-04T05:51:25.065Z,85.89
2017-05-04T05:52:25.046Z,86.08
2017-05-04T05:53:25.020Z,85.6
2017-05-04T05:54:25.003Z,85.32
2017-05-04T05:55:24.968Z,84.65
2017-05-04T05:56:24.950Z,85.32
2017-05-04T05:57:24.928Z,84.65
2017-05-04T05:58:24.908Z,84.31
2017-05-04T05:59:24.582Z,84.03
2017-05-04T06:00:24.912Z,84.03
2017-05-04T06:01:24.841Z,83.74
2017-05-04T06:02:24.816Z,82.31
2017-05-04T06:03:24.487Z,80.69
2017-05-04T06:04:24.776Z,80.88
2017-05-04T06:05:24.750Z,80.31
2017-05-04T06:06:24.731Z,81.26
2017-05-04T06:07:24.702Z,80.6
2017-05-04T06:08:24.721Z,80.98
2017-05-04T06:09:24.661Z,80.88
2017-05-04T06:10:24.638Z,80.98
2017-05-04T06:11:24.615Z,80.6
2017-05-04T06:12:24.628Z,80.65
2017-05-04T06:13:24.623Z,80.94
2017-05-04T06:14:24.547Z,81.32
2017-05-04T06:15:24.523Z,81.32
2017-05-04T06:16:24.507Z,81.89
2017-05-04T06:17:24.481Z,81.13
2017-05-04T06:18:24.459Z,81.51
2017-05-04T06:19:24.438Z,81.89
2017-05-04T06:20:24.414Z,81.98
2017-05-04T06:21:24.443Z,82.56
2017-05-04T06:22:24.365Z,82.56
2017-05-04T06:23:24.399Z,82.93
2017-05-04T06:24:24.570Z,82.56
2017-05-04T06:25:24.299Z,82.37
2017-05-04T06:26:24.288Z,81.6
2017-05-04T06:27:24.262Z,81.13
2017-05-04T06:28:24.231Z,81.98
2017-05-04T06:29:24.261Z,81.51
2017-05-04T06:30:24.240Z,81.32
2017-05-04T06:31:24.160Z,81.79
2017-05-04T06:32:24.150Z,81.51
2017-05-04T06:33:24.116Z,81.98
2017-05-04T06:34:24.098Z,81.89
2017-05-04T06:35:24.077Z,82.37
2017-05-04T06:36:24.060Z,81.98
2017-05-04T06:37:24.030Z,81.32
2017-05-04T06:38:24.004Z,81.41
2017-05-04T06:39:23.990Z,81.98
2017-05-04T06:40:23.964Z,82.37
2017-05-04T06:41:23.991Z,82.08
2017-05-04T06:42:23.938Z,81.32
2017-05-04T06:43:23.895Z,81.32
2017-05-04T06:44:23.868Z,82.08
2017-05-04T06:45:23.850Z,81.79
2017-05-04T06:46:23.824Z,81.7
2017-05-04T06:47:23.805Z,81.23
2017-05-04T06:48:23.779Z,81.41
2017-05-04T06:49:23.786Z,81.6
2017-05-04T06:50:23.740Z,82.27
2017-05-04T06:51:23.717Z,81.51
2017-05-04T06:52:23.688Z,81.23
2017-05-04T06:53:23.668Z,80.94
2017-05-04T06:54:23.646Z,81.03
2017-05-04T06:55:23.671Z,81.32
2017-05-04T06:56:23.631Z,81.32
2017-05-04T06:57:23.578Z,81.32
2017-05-04T06:58:23.254Z,81.13
2017-05-04T06:59:23.230Z,81.32
2017-05-04T07:00:23.213Z,81.13
2017-05-04T07:01:23.493Z,81.03
2017-05-04T07:02:23.466Z,80.65
2017-05-04T07:03:23.144Z,80.75
2017-05-04T07:04:23.423Z,80.46
2017-05-04T07:05:23.397Z,79.8
2017-05-04T07:06:23.379Z,80.65
2017-05-04T07:07:23.354Z,81.23
2017-05-04T07:08:23.332Z,80.65
2017-05-04T07:09:23.308Z,80.75
2017-05-04T07:10:23.284Z,80.46
2017-05-04T07:11:23.263Z,80.12
2017-05-04T07:12:23.241Z,80.41
2017-05-04T07:13:23.224Z,79.93
2017-05-04T07:14:23.199Z,80.12
2017-05-04T07:15:23.174Z,79.64
2017-05-04T07:16:23.151Z,79.46
2017-05-04T07:17:23.127Z,78.59
2017-05-04T07:18:23.104Z,79.17
2017-05-04T07:19:23.082Z,79.07
2017-05-04T07:20:23.063Z,78.31
2017-05-04T07:21:23.040Z,78.03
2017-05-04T07:22:23.020Z,78.25
2017-05-04T07:23:22.992Z,77.78
2017-05-04T07:24:22.974Z,77.78
2017-05-04T07:25:22.955Z,77.59
2017-05-04T07:26:22.935Z,77.69
2017-05-04T07:27:22.909Z,77.4
2017-05-04T07:28:22.894Z,77.4
2017-05-04T07:29:22.861Z,77.69
2017-05-04T07:30:22.841Z,78.06
2017-05-04T07:31:22.819Z,76.44
2017-05-04T07:32:22.798Z,76.73
2017-05-04T07:33:22.780Z,76.82
2017-05-04T07:34:22.754Z,76.44
2017-05-04T07:35:22.735Z,76.82
2017-05-04T07:36:22.710Z,77.49
2017-05-04T07:37:22.688Z,76.73
2017-05-04T07:38:22.674Z,76.92
2017-05-04T07:39:22.644Z,76.92
2017-05-04T07:40:22.621Z,76.64
2017-05-04T07:41:22.603Z,76.73
2017-05-04T07:42:22.578Z,76.73
2017-05-04T07:43:22.558Z,76.54
2017-05-04T07:44:22.534Z,74.86
2017-05-04T07:45:22.516Z,75.05
2017-05-04T07:46:22.494Z,74.86
2017-05-04T07:47:22.470Z,74.48
2017-05-04T07:48:22.453Z,74.29
2017-05-04T07:49:22.430Z,73.08
2017-05-04T07:50:22.415Z,73.18
2017-05-04T07:51:22.383Z,73.08
2017-05-04T07:52:22.370Z,73.56
2017-05-04T07:53:22.642Z,73.18
2017-05-04T07:54:22.325Z,72.42
2017-05-04T07:55:22.307Z,72.99
2017-05-04T07:56:22.280Z,72.71
2017-05-04T07:57:22.259Z,71.41
2017-05-04T07:58:22.241Z,70.92
2017-05-04T07:59:22.221Z,70.73
2017-05-04T08:00:22.201Z,70.92
2017-05-04T08:01:22.182Z,70.87
2017-05-04T08:02:22.165Z,70.87
2017-05-04T08:03:22.139Z,69.47
2017-05-04T08:04:22.120Z,68.8
2017-05-04T08:05:22.102Z,68.8
2017-05-04T08:06:22.080Z,68.99
2017-05-04T08:07:22.059Z,67.46
2017-05-04T08:08:22.044Z,66.44
2017-05-04T08:09:22.017Z,65.97
2017-05-04T08:10:21.999Z,64.66
2017-05-04T08:11:21.982Z,63.99
2017-05-04T08:12:21.963Z,64.47
2017-05-04T08:13:21.943Z,65.04
2017-05-04T08:14:21.930Z,65.52
2017-05-04T08:15:21.601Z,65.81
2017-05-04T08:16:21.900Z,65.33
2017-05-04T08:17:21.869Z,65.42
2017-05-04T08:18:21.847Z,63.73
2017-05-04T08:19:21.832Z,62.68
2017-05-04T08:20:22.118Z,62.55
2017-05-04T08:21:21.793Z,63.7
2017-05-04T08:22:21.777Z,63.54
2017-05-04T08:23:21.762Z,63.83
2017-05-04T08:24:21.745Z,61.18
2017-05-04T08:25:21.722Z,60.35
2017-05-04T08:26:21.707Z,59.48
2017-05-04T08:27:21.688Z,59.2
2017-05-04T08:28:21.671Z,58.56
2017-05-04T08:29:21.662Z,58.37
2017-05-04T08:30:21.637Z,57.03
2017-05-04T08:31:21.625Z,58.17
2017-05-04T08:32:21.603Z,57.89
2017-05-04T08:33:21.593Z,58.27
2017-05-04T08:34:21.572Z,59.39
2017-05-04T08:35:21.559Z,61.31
2017-05-04T08:36:21.545Z,61.85
2017-05-04T08:37:21.523Z,62.52
2017-05-04T08:38:21.506Z,62.59
2017-05-04T08:39:21.492Z,62.97
2017-05-04T08:40:21.723Z,64.37
2017-05-04T08:41:21.457Z,64.18
2017-05-04T08:42:21.434Z,64.28
2017-05-04T08:43:21.425Z,63.83
2017-05-04T08:44:21.415Z,64.85
2017-05-04T08:45:21.381Z,63.8
2017-05-04T08:46:21.363Z,64.37
2017-05-04T08:47:21.349Z,65.23
2017-05-04T08:48:21.330Z,66.44
2017-05-04T08:49:21.308Z,67.18
2017-05-04T08:50:20.990Z,68.41
2017-05-04T08:51:20.966Z,68.32
2017-05-04T08:52:21.250Z,67.27
2017-05-04T08:53:21.259Z,67.27
2017-05-04T08:54:21.214Z,68.1
2017-05-04T08:55:21.192Z,68.86
2017-05-04T08:56:21.177Z,68.29
2017-05-04T08:57:21.149Z,68.96
2017-05-04T08:58:21.135Z,68.76
2017-05-04T08:59:21.117Z,68.76
2017-05-04T09:00:21.110Z,67.91
2017-05-04T09:01:21.077Z,67.94
2017-05-04T09:02:21.059Z,68.13
2017-05-04T09:03:20.742Z,67.84
2017-05-04T09:04:21.018Z,68.32
2017-05-04T09:05:20.999Z,68.13
2017-05-04T09:06:20.978Z,68.23
2017-05-04T09:07:20.963Z,67.65
2017-05-04T09:08:20.640Z,67.18
2017-05-04T09:09:20.921Z,67.46
2017-05-04T09:10:20.902Z,67.36
2017-05-04T09:11:20.883Z,68.04
2017-05-04T09:12:20.861Z,68.13
2017-05-04T09:13:20.543Z,67.65
2017-05-04T09:14:20.823Z,66.54
2017-05-04T09:15:20.798Z,65.77
2017-05-04T09:16:20.786Z,65.58
2017-05-04T09:17:20.765Z,65.81
2017-05-04T09:18:20.764Z,64.85
2017-05-04T09:19:20.729Z,63.83
2017-05-04T09:20:20.709Z,63.93
2017-05-04T09:21:20.701Z,62.52
2017-05-04T09:22:20.980Z,61.85
2017-05-04T09:23:20.653Z,61.79
2017-05-04T09:24:20.631Z,61.02
2017-05-04T09:25:20.622Z,61.85
2017-05-04T09:26:20.606Z,62.23
2017-05-04T09:27:20.585Z,61.76
2017-05-04T09:28:20.562Z,61.85
2017-05-04T09:29:20.553Z,62.68
2017-05-04T09:30:20.530Z,64.22
2017-05-04T09:31:20.512Z,64.66
2017-05-04T09:32:20.494Z,64.95
2017-05-04T09:33:20.481Z,65.2
2017-05-04T09:34:20.454Z,67.3
2017-05-04T09:35:20.436Z,67.88
2017-05-04T09:36:20.417Z,67.55
2017-05-04T09:37:20.401Z,68.8
2017-05-04T09:38:20.375Z,68.99
2017-05-04T09:39:20.359Z,68.99
2017-05-04T09:40:20.343Z,69.56
2017-05-04T09:41:20.326Z,69.95
2017-05-04T09:42:20.304Z,70.2
2017-05-04T09:43:20.286Z,70.52
2017-05-04T09:44:20.263Z,69.53
2017-05-04T09:45:19.945Z,69.56
2017-05-04T09:46:20.225Z,70.48
2017-05-04T09:47:20.205Z,70.58
2017-05-04T09:48:19.880Z,70.48
2017-05-04T09:49:20.159Z,69.62
2017-05-04T09:50:20.154Z,70.39
2017-05-04T09:51:20.120Z,70.39
2017-05-04T09:52:20.099Z,70.01
2017-05-04T09:53:20.081Z,70.39
2017-05-04T09:54:20.060Z,70.39
2017-05-04T09:55:20.045Z,70.33
2017-05-04T09:56:20.019Z,70.42
2017-05-04T09:57:20.005Z,69.76
2017-05-04T09:58:19.989Z,69.85
2017-05-04T09:59:19.962Z,69.95
2017-05-04T10:00:19.937Z,69.95
2017-05-04T10:01:19.928Z,69.95
2017-05-04T10:02:19.909Z,69.66
2017-05-04T10:03:19.886Z,69.18
2017-05-04T10:04:19.865Z,69.02
2017-05-04T10:05:19.857Z,67.59
2017-05-04T10:06:19.823Z,67.4
2017-05-04T10:07:19.802Z,68.55
2017-05-04T10:08:19.792Z,67.97
2017-05-04T10:09:19.761Z,67.02
2017-05-04T10:10:19.739Z,67.11
2017-05-04T10:11:19.718Z,67.11
2017-05-04T10:12:19.706Z,67.3
2017-05-04T10:13:19.686Z,67.11
2017-05-04T10:14:19.665Z,66.83
2017-05-04T10:15:19.647Z,67.11
2017-05-04T10:16:19.626Z,67.78
2017-05-04T10:17:19.604Z,67.97
2017-05-04T10:18:19.587Z,67.02
2017-05-04T10:19:19.268Z,67.3
2017-05-04T10:20:19.555Z,67.27
2017-05-04T10:21:19.530Z,68.23
2017-05-04T10:22:19.512Z,68.23
2017-05-04T10:23:19.690Z,67.65
2017-05-04T10:24:19.469Z,68.41
2017-05-04T10:25:19.448Z,68.32
2017-05-04T10:26:19.441Z,68.41
2017-05-04T10:27:19.627Z,68.32
2017-05-04T10:28:19.399Z,68.41
2017-05-04T10:29:19.369Z,68.51
2017-05-04T10:30:19.350Z,68.32
2017-05-04T10:31:19.337Z,68.32
2017-05-04T10:32:19.314Z,67.49
2017-05-04T10:33:19.291Z,67.97
2017-05-04T10:34:18.971Z,67.78
2017-05-04T10:35:19.250Z,67.11
2017-05-04T10:36:19.231Z,67.08
2017-05-04T10:37:19.212Z,67.84
2017-05-04T10:38:19.193Z,68.32
2017-05-04T10:39:19.176Z,68.41
2017-05-04T10:40:19.152Z,68.04
2017-05-04T10:41:19.131Z,67.27
2017-05-04T10:42:19.110Z,68.04
2017-05-04T10:43:19.091Z,68.51
2017-05-04T10:44:19.074Z,68.51
2017-05-04T10:45:19.054Z,68.61
2017-05-04T10:46:19.031Z,68.99
2017-05-04T10:47:19.010Z,68.61
2017-05-04T10:48:18.990Z,68.48
2017-05-04T10:49:18.973Z,68.96
2017-05-04T10:50:18.944Z,68.96
2017-05-04T10:51:18.928Z,68.86
2017-05-04T10:52:18.911Z,69.91
2017-05-04T10:53:18.888Z,69.62
2017-05-04T10:54:18.873Z,69.82
2017-05-04T10:55:18.842Z,70.1
2017-05-04T10:56:18.821Z,69.91
2017-05-04T10:57:18.807Z,69.82
2017-05-04T10:58:18.783Z,70.01
2017-05-04T10:59:18.760Z,70.01
2017-05-04T11:00:18.746Z,69.72
2017-05-04T11:01:18.718Z,69.34
2017-05-04T11:02:18.707Z,69.91
2017-05-04T11:03:18.382Z,69.72
2017-05-04T11:04:18.653Z,69.91
2017-05-04T11:05:18.642Z,69.72
2017-05-04T11:06:18.624Z,70.1
2017-05-04T11:07:18.593Z,70.87
2017-05-04T11:08:18.572Z,70.1
2017-05-04T11:09:18.550Z,70.01
2017-05-04T11:10:18.531Z,70.39
2017-05-04T11:11:18.514Z,70.01
2017-05-04T11:12:18.493Z,70.39
2017-05-04T11:13:18.171Z,69.62
2017-05-04T11:14:18.147Z,68.96
2017-05-04T11:15:18.427Z,69.62
2017-05-04T11:16:18.415Z,69.53
2017-05-04T11:17:18.383Z,69.05
2017-05-04T11:18:18.364Z,68.41
2017-05-04T11:19:18.344Z,68.23
2017-05-04T11:20:18.376Z,68.9
2017-05-04T11:21:18.304Z,69.05
2017-05-04T11:22:18.285Z,69.43
2017-05-04T11:23:18.267Z,69.72
2017-05-04T11:24:18.243Z,69.91
2017-05-04T11:25:18.221Z,70.39
2017-05-04T11:26:18.198Z,70.39
2017-05-04T11:27:18.179Z,70.96
2017-05-04T11:28:18.455Z,70.96
2017-05-04T11:29:18.132Z,70.45
2017-05-04T11:30:18.419Z,71.31
2017-05-04T11:31:18.094Z,71.02
2017-05-04T11:32:18.071Z,70.92
2017-05-04T11:33:18.055Z,70.73
2017-05-04T11:34:18.026Z,70.92
2017-05-04T11:35:18.014Z,71.5
2017-05-04T11:36:17.994Z,71.98
2017-05-04T11:37:17.961Z,71.78
2017-05-04T11:38:17.944Z,71.98
2017-05-04T11:39:17.620Z,71.34
2017-05-04T11:40:17.907Z,71.15
2017-05-04T11:41:17.880Z,71.25
2017-05-04T11:42:17.859Z,70.96
2017-05-04T11:43:17.841Z,71.53
2017-05-04T11:44:17.816Z,71.53
2017-05-04T11:45:17.795Z,70.77
2017-05-04T11:46:17.773Z,70.77
2017-05-04T11:47:17.752Z,70.58
2017-05-04T11:48:17.727Z,70.77
2017-05-04T11:49:17.714Z,71.53
2017-05-04T11:50:17.389Z,71.82
2017-05-04T11:51:17.665Z,71.78
2017-05-04T11:52:17.341Z,71.59
2017-05-04T11:53:17.629Z,72.17
2017-05-04T11:54:17.606Z,71.98
2017-05-04T11:55:17.582Z,72.17
2017-05-04T11:56:17.564Z,72.74
2017-05-04T11:57:17.538Z,73.32
2017-05-04T11:58:17.523Z,72.93
2017-05-04T11:59:17.499Z,73.03
2017-05-04T12:00:17.186Z,73.69
2017-05-04T12:01:17.456Z,73.6
2017-05-04T12:02:17.434Z,73.22
2017-05-04T12:03:17.421Z,73.32
2017-05-04T12:04:17.402Z,73.12
2017-05-04T12:05:17.377Z,73.22
2017-05-04T12:06:17.522Z,73.32
2017-05-04T12:07:17.327Z,73.98
2017-05-04T12:08:17.299Z,74.55
2017-05-04T12:09:17.278Z,74.23
2017-05-04T12:10:17.279Z,74.37
2017-05-04T12:11:17.257Z,74.55
2017-05-04T12:12:17.221Z,74.65
2017-05-04T12:13:17.202Z,74.99
2017-05-04T12:14:17.176Z,74.8
2017-05-04T12:15:17.185Z,74.99
2017-05-04T12:16:17.131Z,75.09
2017-05-04T12:17:17.116Z,75.47
2017-05-04T12:18:17.097Z,75.28
2017-05-04T12:19:17.073Z,75.28
2017-05-04T12:20:17.048Z,75.85
2017-05-04T12:21:17.021Z,75.57
2017-05-04T12:22:17.000Z,75.85
2017-05-04T12:23:16.985Z,75.66
2017-05-04T12:24:16.959Z,75.57
2017-05-04T12:25:16.960Z,76.42
2017-05-04T12:26:16.925Z,76.23
2017-05-04T12:27:16.885Z,76.62
2017-05-04T12:28:16.572Z,76.39
2017-05-04T12:29:16.858Z,76.9
2017-05-04T12:30:16.820Z,76.81
2017-05-04T12:31:16.806Z,76.62
2017-05-04T12:32:16.479Z,76.33
2017-05-04T12:33:16.464Z,76.62
2017-05-04T12:34:16.735Z,76.14
2017-05-04T12:35:16.717Z,76.23
2017-05-04T12:36:16.710Z,76.04
2017-05-04T12:37:16.671Z,75.76
2017-05-04T12:38:16.660Z,75.85
2017-05-04T12:39:16.329Z,75.62
2017-05-04T12:40:16.624Z,76.29
2017-05-04T12:41:16.284Z,76.77
2017-05-04T12:42:16.601Z,76.86
2017-05-04T12:43:16.539Z,76.96
2017-05-04T12:44:16.530Z,77.44
2017-05-04T12:45:16.500Z,77.44
2017-05-04T12:46:16.184Z,76.9
2017-05-04T12:47:16.475Z,76.86
2017-05-04T12:48:16.432Z,76.81
2017-05-04T12:49:16.419Z,76.52
2017-05-04T12:50:16.397Z,77
2017-05-04T12:51:16.371Z,77
2017-05-04T12:52:16.366Z,77.25
2017-05-04T12:53:16.336Z,77.38
2017-05-04T12:54:16.004Z,76.77
2017-05-04T12:55:15.976Z,76.86